sensor_id;sensor_type;location;lat;lon;timestamp;P1;durP1;ratioP1;P2;durP2;ratioP2
11531;SDS011;5822;51.000;5.874;2022-07-06T00:01:16;26.37;;;23.77;;
11531;SDS011;5822;51.000;5.874;2022-07-06T00:03:42;26.83;;;24.23;;
11531;SDS011;5822;51.000;5.874;2022-07-06T00:06:08;26.03;;;23.43;;
11531;SDS011;5822;51.000;5.874;2022-07-06T00:08:33;27.37;;;24.67;;
11531;SDS011;5822;51.000;5.874;2022-07-06T00:10:59;26.83;;;24.27;;
11531;SDS011;5822;51.000;5.874;2022-07-06T00:13:25;28.00;;;25.43;;
11531;SDS011;5822;51.000;5.874;2022-07-06T00:15:51;27.27;;;24.67;;
11531;SDS011;5822;51.000;5.874;2022-07-06T00:18:16;26.13;;;23.53;;
11531;SDS011;5822;51.000;5.874;2022-07-06T00:20:42;26.83;;;24.17;;
11531;SDS011;5822;51.000;5.874;2022-07-06T00:23:07;26.67;;;24.17;;
11531;SDS011;5822;51.000;5.874;2022-07-06T00:25:33;27.30;;;24.80;;
11531;SDS011;5822;51.000;5.874;2022-07-06T00:27:59;27.60;;;24.87;;
11531;SDS011;5822;51.000;5.874;2022-07-06T00:30:24;25.60;;;23.13;;
11531;SDS011;5822;51.000;5.874;2022-07-06T00:32:50;26.67;;;23.97;;
11531;SDS011;5822;51.000;5.874;2022-07-06T00:35:16;26.57;;;23.97;;
11531;SDS011;5822;51.000;5.874;2022-07-06T00:37:41;26.03;;;23.47;;
11531;SDS011;5822;51.000;5.874;2022-07-06T00:40:07;27.17;;;24.47;;
11531;SDS011;5822;51.000;5.874;2022-07-06T00:42:40;25.97;;;23.47;;
11531;SDS011;5822;51.000;5.874;2022-07-06T00:45:07;26.37;;;23.80;;
11531;SDS011;5822;51.000;5.874;2022-07-06T00:47:33;26.50;;;23.70;;
11531;SDS011;5822;51.000;5.874;2022-07-06T00:49:59;24.43;;;22.13;;
11531;SDS011;5822;51.000;5.874;2022-07-06T00:52:43;24.97;;;22.57;;
11531;SDS011;5822;51.000;5.874;2022-07-06T00:55:10;25.07;;;22.57;;
11531;SDS011;5822;51.000;5.874;2022-07-06T00:57:37;24.97;;;22.57;;
11531;SDS011;5822;51.000;5.874;2022-07-06T01:00:04;25.83;;;23.33;;
11531;SDS011;5822;51.000;5.874;2022-07-06T01:02:31;26.73;;;24.23;;
11531;SDS011;5822;51.000;5.874;2022-07-06T01:04:57;26.30;;;23.80;;
11531;SDS011;5822;51.000;5.874;2022-07-06T01:07:23;26.93;;;24.53;;
11531;SDS011;5822;51.000;5.874;2022-07-06T01:09:49;26.37;;;23.97;;
11531;SDS011;5822;51.000;5.874;2022-07-06T01:12:15;26.23;;;23.63;;
11531;SDS011;5822;51.000;5.874;2022-07-06T01:14:41;26.70;;;23.87;;
11531;SDS011;5822;51.000;5.874;2022-07-06T01:17:09;25.43;;;22.90;;
11531;SDS011;5822;51.000;5.874;2022-07-06T01:19:35;26.00;;;23.60;;
11531;SDS011;5822;51.000;5.874;2022-07-06T01:22:00;26.57;;;23.97;;
11531;SDS011;5822;51.000;5.874;2022-07-06T01:24:26;25.93;;;23.43;;
11531;SDS011;5822;51.000;5.874;2022-07-06T01:26:52;25.83;;;23.23;;
11531;SDS011;5822;51.000;5.874;2022-07-06T01:29:18;25.97;;;23.33;;
11531;SDS011;5822;51.000;5.874;2022-07-06T01:31:47;24.53;;;22.23;;
11531;SDS011;5822;51.000;5.874;2022-07-06T01:34:14;24.63;;;22.23;;
11531;SDS011;5822;51.000;5.874;2022-07-06T01:36:41;25.03;;;22.73;;
11531;SDS011;5822;51.000;5.874;2022-07-06T01:39:08;25.80;;;23.20;;
11531;SDS011;5822;51.000;5.874;2022-07-06T01:41:33;26.40;;;23.80;;
11531;SDS011;5822;51.000;5.874;2022-07-06T01:43:59;26.17;;;23.67;;
11531;SDS011;5822;51.000;5.874;2022-07-06T01:46:24;26.10;;;23.50;;
11531;SDS011;5822;51.000;5.874;2022-07-06T01:48:50;26.10;;;23.63;;
11531;SDS011;5822;51.000;5.874;2022-07-06T01:51:16;26.63;;;24.07;;
11531;SDS011;5822;51.000;5.874;2022-07-06T01:53:42;27.00;;;24.33;;
11531;SDS011;5822;51.000;5.874;2022-07-06T01:56:08;26.30;;;23.77;;
11531;SDS011;5822;51.000;5.874;2022-07-06T01:58:34;25.80;;;23.30;;
11531;SDS011;5822;51.000;5.874;2022-07-06T02:01:00;27.10;;;24.50;;
11531;SDS011;5822;51.000;5.874;2022-07-06T02:03:31;26.63;;;23.90;;
11531;SDS011;5822;51.000;5.874;2022-07-06T02:05:56;27.37;;;24.63;;
11531;SDS011;5822;51.000;5.874;2022-07-06T02:08:22;28.37;;;25.67;;
11531;SDS011;5822;51.000;5.874;2022-07-06T02:10:47;28.47;;;25.87;;
11531;SDS011;5822;51.000;5.874;2022-07-06T02:13:13;28.20;;;25.50;;
11531;SDS011;5822;51.000;5.874;2022-07-06T02:15:39;28.90;;;26.20;;
11531;SDS011;5822;51.000;5.874;2022-07-06T02:18:04;28.37;;;25.70;;
11531;SDS011;5822;51.000;5.874;2022-07-06T02:20:30;28.47;;;25.77;;
11531;SDS011;5822;51.000;5.874;2022-07-06T02:22:55;28.37;;;25.77;;
11531;SDS011;5822;51.000;5.874;2022-07-06T02:25:21;27.97;;;25.37;;
11531;SDS011;5822;51.000;5.874;2022-07-06T02:27:47;27.80;;;25.23;;
11531;SDS011;5822;51.000;5.874;2022-07-06T02:30:12;27.70;;;25.10;;
11531;SDS011;5822;51.000;5.874;2022-07-06T02:32:38;27.43;;;24.83;;
11531;SDS011;5822;51.000;5.874;2022-07-06T02:35:03;27.67;;;25.07;;
11531;SDS011;5822;51.000;5.874;2022-07-06T02:37:29;28.10;;;25.30;;
11531;SDS011;5822;51.000;5.874;2022-07-06T02:39:55;27.93;;;25.23;;
11531;SDS011;5822;51.000;5.874;2022-07-06T02:42:20;28.00;;;25.40;;
11531;SDS011;5822;51.000;5.874;2022-07-06T02:44:46;27.63;;;25.03;;
11531;SDS011;5822;51.000;5.874;2022-07-06T02:47:11;27.00;;;24.50;;
11531;SDS011;5822;51.000;5.874;2022-07-06T02:49:37;27.87;;;25.33;;
11531;SDS011;5822;51.000;5.874;2022-07-06T02:52:02;27.47;;;24.97;;
11531;SDS011;5822;51.000;5.874;2022-07-06T02:54:28;27.57;;;24.87;;
11531;SDS011;5822;51.000;5.874;2022-07-06T02:56:54;28.00;;;25.40;;
11531;SDS011;5822;51.000;5.874;2022-07-06T02:59:19;27.50;;;25.00;;
11531;SDS011;5822;51.000;5.874;2022-07-06T03:01:45;28.30;;;25.77;;
11531;SDS011;5822;51.000;5.874;2022-07-06T03:04:11;27.70;;;25.10;;
11531;SDS011;5822;51.000;5.874;2022-07-06T03:06:36;28.33;;;25.70;;
11531;SDS011;5822;51.000;5.874;2022-07-06T03:09:02;28.80;;;26.10;;
11531;SDS011;5822;51.000;5.874;2022-07-06T03:11:28;28.17;;;25.47;;
11531;SDS011;5822;51.000;5.874;2022-07-06T03:13:54;27.87;;;25.13;;
11531;SDS011;5822;51.000;5.874;2022-07-06T03:16:20;27.77;;;25.17;;
11531;SDS011;5822;51.000;5.874;2022-07-06T03:18:45;26.50;;;24.00;;
11531;SDS011;5822;51.000;5.874;2022-07-06T03:21:11;27.07;;;24.57;;
11531;SDS011;5822;51.000;5.874;2022-07-06T03:23:36;28.30;;;25.60;;
11531;SDS011;5822;51.000;5.874;2022-07-06T03:26:02;28.47;;;25.77;;
11531;SDS011;5822;51.000;5.874;2022-07-06T03:28:28;27.47;;;24.70;;
11531;SDS011;5822;51.000;5.874;2022-07-06T03:30:54;28.33;;;25.73;;
11531;SDS011;5822;51.000;5.874;2022-07-06T03:33:19;27.50;;;24.90;;
11531;SDS011;5822;51.000;5.874;2022-07-06T03:35:45;28.47;;;25.87;;
11531;SDS011;5822;51.000;5.874;2022-07-06T03:38:10;28.87;;;26.37;;
11531;SDS011;5822;51.000;5.874;2022-07-06T03:40:36;30.43;;;27.53;;
11531;SDS011;5822;51.000;5.874;2022-07-06T03:43:02;30.50;;;27.80;;
11531;SDS011;5822;51.000;5.874;2022-07-06T03:45:27;31.90;;;29.00;;
11531;SDS011;5822;51.000;5.874;2022-07-06T03:47:53;29.33;;;26.60;;
11531;SDS011;5822;51.000;5.874;2022-07-06T03:50:18;29.47;;;26.77;;
11531;SDS011;5822;51.000;5.874;2022-07-06T03:52:44;31.07;;;28.17;;
11531;SDS011;5822;51.000;5.874;2022-07-06T03:55:10;30.70;;;28.03;;
11531;SDS011;5822;51.000;5.874;2022-07-06T03:57:37;30.50;;;27.73;;
11531;SDS011;5822;51.000;5.874;2022-07-06T04:00:04;31.70;;;28.80;;
11531;SDS011;5822;51.000;5.874;2022-07-06T04:02:30;32.13;;;29.30;;
11531;SDS011;5822;51.000;5.874;2022-07-06T04:04:56;33.03;;;29.97;;
11531;SDS011;5822;51.000;5.874;2022-07-06T04:07:22;31.03;;;28.30;;
11531;SDS011;5822;51.000;5.874;2022-07-06T04:09:48;30.90;;;27.80;;
11531;SDS011;5822;51.000;5.874;2022-07-06T04:12:13;29.83;;;27.13;;
11531;SDS011;5822;51.000;5.874;2022-07-06T04:14:39;30.90;;;27.90;;
11531;SDS011;5822;51.000;5.874;2022-07-06T04:17:04;30.60;;;27.73;;
11531;SDS011;5822;51.000;5.874;2022-07-06T04:19:49;31.60;;;28.77;;
11531;SDS011;5822;51.000;5.874;2022-07-06T04:22:14;31.60;;;28.80;;
11531;SDS011;5822;51.000;5.874;2022-07-06T04:24:40;32.73;;;29.80;;
11531;SDS011;5822;51.000;5.874;2022-07-06T04:27:06;31.80;;;28.53;;
11531;SDS011;5822;51.000;5.874;2022-07-06T04:29:31;30.70;;;28.00;;
11531;SDS011;5822;51.000;5.874;2022-07-06T04:31:57;31.73;;;28.83;;
11531;SDS011;5822;51.000;5.874;2022-07-06T04:34:22;31.50;;;28.70;;
11531;SDS011;5822;51.000;5.874;2022-07-06T04:36:48;31.20;;;28.30;;
11531;SDS011;5822;51.000;5.874;2022-07-06T04:39:13;33.53;;;30.50;;
11531;SDS011;5822;51.000;5.874;2022-07-06T04:41:39;33.03;;;30.10;;
11531;SDS011;5822;51.000;5.874;2022-07-06T04:44:04;32.43;;;29.37;;
11531;SDS011;5822;51.000;5.874;2022-07-06T04:46:30;32.43;;;29.50;;
11531;SDS011;5822;51.000;5.874;2022-07-06T04:48:55;31.50;;;28.43;;
11531;SDS011;5822;51.000;5.874;2022-07-06T04:51:21;30.63;;;27.73;;
11531;SDS011;5822;51.000;5.874;2022-07-06T04:53:46;31.50;;;28.43;;
11531;SDS011;5822;51.000;5.874;2022-07-06T04:56:12;73.17;;;30.37;;
11531;SDS011;5822;51.000;5.874;2022-07-06T04:58:38;33.07;;;30.07;;
11531;SDS011;5822;51.000;5.874;2022-07-06T05:01:03;32.40;;;29.40;;
11531;SDS011;5822;51.000;5.874;2022-07-06T05:03:29;32.00;;;28.93;;
11531;SDS011;5822;51.000;5.874;2022-07-06T05:05:54;33.53;;;30.40;;
11531;SDS011;5822;51.000;5.874;2022-07-06T05:08:20;31.63;;;28.70;;
11531;SDS011;5822;51.000;5.874;2022-07-06T05:10:47;31.87;;;28.97;;
11531;SDS011;5822;51.000;5.874;2022-07-06T05:13:13;30.07;;;26.93;;
11531;SDS011;5822;51.000;5.874;2022-07-06T05:15:39;29.20;;;26.27;;
11531;SDS011;5822;51.000;5.874;2022-07-06T05:18:04;32.20;;;29.40;;
11531;SDS011;5822;51.000;5.874;2022-07-06T05:20:30;30.27;;;27.47;;
11531;SDS011;5822;51.000;5.874;2022-07-06T05:22:56;29.43;;;26.50;;
11531;SDS011;5822;51.000;5.874;2022-07-06T05:25:21;30.27;;;27.57;;
11531;SDS011;5822;51.000;5.874;2022-07-06T05:27:47;30.20;;;27.43;;
11531;SDS011;5822;51.000;5.874;2022-07-06T05:30:13;29.07;;;26.37;;
11531;SDS011;5822;51.000;5.874;2022-07-06T05:32:40;30.43;;;27.53;;
11531;SDS011;5822;51.000;5.874;2022-07-06T05:35:06;29.67;;;26.87;;
11531;SDS011;5822;51.000;5.874;2022-07-06T05:37:32;29.50;;;26.70;;
11531;SDS011;5822;51.000;5.874;2022-07-06T05:39:58;31.57;;;28.70;;
11531;SDS011;5822;51.000;5.874;2022-07-06T05:42:23;31.90;;;29.00;;
11531;SDS011;5822;51.000;5.874;2022-07-06T05:44:49;30.17;;;27.50;;
11531;SDS011;5822;51.000;5.874;2022-07-06T05:47:15;29.37;;;26.73;;
11531;SDS011;5822;51.000;5.874;2022-07-06T05:49:59;29.50;;;26.97;;
11531;SDS011;5822;51.000;5.874;2022-07-06T05:52:40;30.53;;;27.73;;
11531;SDS011;5822;51.000;5.874;2022-07-06T05:55:07;30.70;;;28.00;;
11531;SDS011;5822;51.000;5.874;2022-07-06T05:57:34;29.77;;;27.17;;
11531;SDS011;5822;51.000;5.874;2022-07-06T06:00:00;30.77;;;28.07;;
11531;SDS011;5822;51.000;5.874;2022-07-06T06:02:26;32.13;;;29.33;;
11531;SDS011;5822;51.000;5.874;2022-07-06T06:04:52;30.73;;;27.73;;
11531;SDS011;5822;51.000;5.874;2022-07-06T06:07:18;34.00;;;31.20;;
11531;SDS011;5822;51.000;5.874;2022-07-06T06:09:44;34.23;;;31.23;;
11531;SDS011;5822;51.000;5.874;2022-07-06T06:12:09;34.87;;;31.90;;
11531;SDS011;5822;51.000;5.874;2022-07-06T06:14:35;33.70;;;30.80;;
11531;SDS011;5822;51.000;5.874;2022-07-06T06:17:00;33.87;;;31.03;;
11531;SDS011;5822;51.000;5.874;2022-07-06T06:19:26;33.43;;;30.67;;
11531;SDS011;5822;51.000;5.874;2022-07-06T06:21:51;32.60;;;29.60;;
11531;SDS011;5822;51.000;5.874;2022-07-06T06:24:17;32.13;;;29.47;;
11531;SDS011;5822;51.000;5.874;2022-07-06T06:26:43;32.73;;;29.87;;
11531;SDS011;5822;51.000;5.874;2022-07-06T06:29:08;30.07;;;27.30;;
11531;SDS011;5822;51.000;5.874;2022-07-06T06:31:34;31.83;;;29.20;;
11531;SDS011;5822;51.000;5.874;2022-07-06T06:33:59;30.83;;;28.13;;
11531;SDS011;5822;51.000;5.874;2022-07-06T06:36:25;39.33;;;31.67;;
11531;SDS011;5822;51.000;5.874;2022-07-06T06:38:51;31.97;;;29.10;;
11531;SDS011;5822;51.000;5.874;2022-07-06T06:41:16;31.67;;;28.87;;
11531;SDS011;5822;51.000;5.874;2022-07-06T06:43:43;35.37;;;32.10;;
11531;SDS011;5822;51.000;5.874;2022-07-06T06:46:11;32.70;;;29.80;;
11531;SDS011;5822;51.000;5.874;2022-07-06T06:48:36;30.77;;;27.87;;
11531;SDS011;5822;51.000;5.874;2022-07-06T06:51:03;29.67;;;27.07;;
11531;SDS011;5822;51.000;5.874;2022-07-06T06:53:29;28.57;;;26.03;;
11531;SDS011;5822;51.000;5.874;2022-07-06T06:55:54;28.40;;;26.10;;
11531;SDS011;5822;51.000;5.874;2022-07-06T06:58:20;29.00;;;26.60;;
11531;SDS011;5822;51.000;5.874;2022-07-06T07:00:46;28.27;;;25.77;;
11531;SDS011;5822;51.000;5.874;2022-07-06T07:03:12;28.70;;;26.10;;
11531;SDS011;5822;51.000;5.874;2022-07-06T07:05:38;28.57;;;26.07;;
11531;SDS011;5822;51.000;5.874;2022-07-06T07:08:03;25.43;;;23.13;;
11531;SDS011;5822;51.000;5.874;2022-07-06T07:10:29;26.03;;;23.63;;
11531;SDS011;5822;51.000;5.874;2022-07-06T07:12:55;25.20;;;22.93;;
11531;SDS011;5822;51.000;5.874;2022-07-06T07:15:20;26.97;;;24.70;;
11531;SDS011;5822;51.000;5.874;2022-07-06T07:17:46;27.43;;;25.00;;
11531;SDS011;5822;51.000;5.874;2022-07-06T07:20:12;25.17;;;22.97;;
11531;SDS011;5822;51.000;5.874;2022-07-06T07:22:38;24.80;;;22.57;;
11531;SDS011;5822;51.000;5.874;2022-07-06T07:25:04;25.07;;;22.67;;
11531;SDS011;5822;51.000;5.874;2022-07-06T07:27:30;24.77;;;22.47;;
11531;SDS011;5822;51.000;5.874;2022-07-06T07:29:55;25.10;;;22.80;;
11531;SDS011;5822;51.000;5.874;2022-07-06T07:32:21;25.87;;;23.57;;
11531;SDS011;5822;51.000;5.874;2022-07-06T07:34:46;25.43;;;23.23;;
11531;SDS011;5822;51.000;5.874;2022-07-06T07:37:12;25.10;;;22.80;;
11531;SDS011;5822;51.000;5.874;2022-07-06T07:39:38;25.23;;;22.97;;
11531;SDS011;5822;51.000;5.874;2022-07-06T07:42:03;26.00;;;23.70;;
11531;SDS011;5822;51.000;5.874;2022-07-06T07:44:29;25.30;;;23.00;;
11531;SDS011;5822;51.000;5.874;2022-07-06T07:46:55;24.53;;;22.43;;
11531;SDS011;5822;51.000;5.874;2022-07-06T07:49:21;25.33;;;23.07;;
11531;SDS011;5822;51.000;5.874;2022-07-06T07:51:49;26.53;;;24.30;;
11531;SDS011;5822;51.000;5.874;2022-07-06T07:54:15;26.30;;;24.00;;
11531;SDS011;5822;51.000;5.874;2022-07-06T07:56:41;26.50;;;24.20;;
11531;SDS011;5822;51.000;5.874;2022-07-06T07:59:06;26.70;;;24.20;;
11531;SDS011;5822;51.000;5.874;2022-07-06T08:01:32;26.63;;;24.17;;
11531;SDS011;5822;51.000;5.874;2022-07-06T08:03:58;26.00;;;23.77;;
11531;SDS011;5822;51.000;5.874;2022-07-06T08:06:24;27.47;;;25.17;;
11531;SDS011;5822;51.000;5.874;2022-07-06T08:08:50;27.07;;;23.63;;
11531;SDS011;5822;51.000;5.874;2022-07-06T08:11:15;24.17;;;21.97;;
11531;SDS011;5822;51.000;5.874;2022-07-06T08:13:41;24.17;;;21.83;;
11531;SDS011;5822;51.000;5.874;2022-07-06T08:16:07;23.60;;;21.40;;
11531;SDS011;5822;51.000;5.874;2022-07-06T08:18:34;24.50;;;22.07;;
11531;SDS011;5822;51.000;5.874;2022-07-06T08:21:00;23.40;;;21.17;;
11531;SDS011;5822;51.000;5.874;2022-07-06T08:23:26;23.03;;;20.93;;
11531;SDS011;5822;51.000;5.874;2022-07-06T08:25:52;24.30;;;21.90;;
11531;SDS011;5822;51.000;5.874;2022-07-06T08:28:17;25.93;;;23.73;;
11531;SDS011;5822;51.000;5.874;2022-07-06T08:30:43;27.17;;;24.63;;
11531;SDS011;5822;51.000;5.874;2022-07-06T08:33:09;26.87;;;24.57;;
11531;SDS011;5822;51.000;5.874;2022-07-06T08:35:34;26.63;;;24.23;;
11531;SDS011;5822;51.000;5.874;2022-07-06T08:38:00;26.13;;;23.83;;
11531;SDS011;5822;51.000;5.874;2022-07-06T08:40:26;26.13;;;23.93;;
11531;SDS011;5822;51.000;5.874;2022-07-06T08:42:58;26.07;;;23.67;;
11531;SDS011;5822;51.000;5.874;2022-07-06T08:45:25;25.47;;;23.17;;
11531;SDS011;5822;51.000;5.874;2022-07-06T08:47:51;28.07;;;24.20;;
11531;SDS011;5822;51.000;5.874;2022-07-06T08:50:20;26.97;;;24.57;;
11531;SDS011;5822;51.000;5.874;2022-07-06T08:52:47;24.97;;;22.77;;
11531;SDS011;5822;51.000;5.874;2022-07-06T08:55:14;25.63;;;23.40;;
11531;SDS011;5822;51.000;5.874;2022-07-06T08:57:41;24.87;;;22.67;;
11531;SDS011;5822;51.000;5.874;2022-07-06T09:00:10;26.17;;;23.97;;
11531;SDS011;5822;51.000;5.874;2022-07-06T09:02:37;27.03;;;24.73;;
11531;SDS011;5822;51.000;5.874;2022-07-06T09:05:04;28.73;;;26.23;;
11531;SDS011;5822;51.000;5.874;2022-07-06T09:07:31;26.40;;;24.10;;
11531;SDS011;5822;51.000;5.874;2022-07-06T09:09:57;26.00;;;23.80;;
11531;SDS011;5822;51.000;5.874;2022-07-06T09:12:26;26.53;;;24.23;;
11531;SDS011;5822;51.000;5.874;2022-07-06T09:14:55;27.47;;;25.07;;
11531;SDS011;5822;51.000;5.874;2022-07-06T09:17:24;25.90;;;23.50;;
11531;SDS011;5822;51.000;5.874;2022-07-06T09:19:52;27.73;;;25.33;;
11531;SDS011;5822;51.000;5.874;2022-07-06T09:22:29;27.80;;;25.40;;
11531;SDS011;5822;51.000;5.874;2022-07-06T09:25:06;25.67;;;23.30;;
11531;SDS011;5822;51.000;5.874;2022-07-06T09:27:40;26.47;;;24.10;;
11531;SDS011;5822;51.000;5.874;2022-07-06T09:30:15;26.60;;;24.20;;
11531;SDS011;5822;51.000;5.874;2022-07-06T09:32:42;29.03;;;26.43;;
11531;SDS011;5822;51.000;5.874;2022-07-06T09:35:19;27.97;;;25.57;;
11531;SDS011;5822;51.000;5.874;2022-07-06T09:40:33;28.43;;;26.03;;
11531;SDS011;5822;51.000;5.874;2022-07-06T09:43:06;27.43;;;24.93;;
11531;SDS011;5822;51.000;5.874;2022-07-06T09:45:37;25.93;;;23.63;;
11531;SDS011;5822;51.000;5.874;2022-07-06T09:48:13;26.03;;;23.47;;
11531;SDS011;5822;51.000;5.874;2022-07-06T09:50:43;26.70;;;24.40;;
11531;SDS011;5822;51.000;5.874;2022-07-06T09:53:13;26.33;;;24.00;;
11531;SDS011;5822;51.000;5.874;2022-07-06T09:55:42;27.97;;;25.37;;
11531;SDS011;5822;51.000;5.874;2022-07-06T09:58:09;26.20;;;23.90;;
11531;SDS011;5822;51.000;5.874;2022-07-06T10:00:35;27.37;;;25.07;;
11531;SDS011;5822;51.000;5.874;2022-07-06T10:03:00;26.03;;;23.70;;
11531;SDS011;5822;51.000;5.874;2022-07-06T10:05:27;28.60;;;26.10;;
11531;SDS011;5822;51.000;5.874;2022-07-06T10:08:00;28.07;;;25.60;;
11531;SDS011;5822;51.000;5.874;2022-07-06T10:10:27;27.60;;;25.20;;
11531;SDS011;5822;51.000;5.874;2022-07-06T10:12:54;26.00;;;23.70;;
11531;SDS011;5822;51.000;5.874;2022-07-06T10:15:22;29.13;;;26.63;;
11531;SDS011;5822;51.000;5.874;2022-07-06T10:17:50;29.07;;;26.67;;
11531;SDS011;5822;51.000;5.874;2022-07-06T10:20:17;30.33;;;27.83;;
11531;SDS011;5822;51.000;5.874;2022-07-06T10:22:49;24.60;;;22.30;;
11531;SDS011;5822;51.000;5.874;2022-07-06T10:25:19;25.23;;;23.00;;
11531;SDS011;5822;51.000;5.874;2022-07-06T10:27:45;27.63;;;25.23;;
11531;SDS011;5822;51.000;5.874;2022-07-06T10:30:11;25.77;;;23.40;;
11531;SDS011;5822;51.000;5.874;2022-07-06T10:32:38;25.10;;;22.70;;
11531;SDS011;5822;51.000;5.874;2022-07-06T10:35:06;25.40;;;23.20;;
11531;SDS011;5822;51.000;5.874;2022-07-06T10:37:32;26.40;;;23.90;;
11531;SDS011;5822;51.000;5.874;2022-07-06T10:39:59;25.37;;;23.07;;
11531;SDS011;5822;51.000;5.874;2022-07-06T10:42:55;25.37;;;23.03;;
11531;SDS011;5822;51.000;5.874;2022-07-06T10:53:09;26.43;;;24.13;;
11531;SDS011;5822;51.000;5.874;2022-07-06T10:55:38;25.97;;;23.57;;
11531;SDS011;5822;51.000;5.874;2022-07-06T10:58:07;26.77;;;24.27;;
11531;SDS011;5822;51.000;5.874;2022-07-06T11:00:47;25.57;;;23.27;;
11531;SDS011;5822;51.000;5.874;2022-07-06T11:06:05;27.93;;;25.50;;
11531;SDS011;5822;51.000;5.874;2022-07-06T11:11:11;28.17;;;25.87;;
11531;SDS011;5822;51.000;5.874;2022-07-06T11:13:49;28.00;;;25.53;;
11531;SDS011;5822;51.000;5.874;2022-07-06T11:19:15;29.70;;;27.17;;
11531;SDS011;5822;51.000;5.874;2022-07-06T11:24:13;26.37;;;23.97;;
11531;SDS011;5822;51.000;5.874;2022-07-06T11:26:39;26.23;;;23.93;;
11531;SDS011;5822;51.000;5.874;2022-07-06T11:29:08;27.80;;;25.40;;
11531;SDS011;5822;51.000;5.874;2022-07-06T11:31:36;26.63;;;24.33;;
11531;SDS011;5822;51.000;5.874;2022-07-06T11:34:04;27.30;;;24.97;;
11531;SDS011;5822;51.000;5.874;2022-07-06T11:36:30;27.53;;;25.13;;
11531;SDS011;5822;51.000;5.874;2022-07-06T11:38:56;28.57;;;26.17;;
11531;SDS011;5822;51.000;5.874;2022-07-06T11:41:22;26.77;;;24.43;;
11531;SDS011;5822;51.000;5.874;2022-07-06T11:43:48;30.43;;;27.83;;
11531;SDS011;5822;51.000;5.874;2022-07-06T11:46:31;27.30;;;24.80;;
11531;SDS011;5822;51.000;5.874;2022-07-06T11:51:32;27.07;;;24.77;;
11531;SDS011;5822;51.000;5.874;2022-07-06T11:54:00;29.30;;;26.83;;
11531;SDS011;5822;51.000;5.874;2022-07-06T11:56:31;28.10;;;25.80;;
11531;SDS011;5822;51.000;5.874;2022-07-06T11:58:57;30.17;;;27.77;;
11531;SDS011;5822;51.000;5.874;2022-07-06T12:01:25;29.37;;;26.97;;
11531;SDS011;5822;51.000;5.874;2022-07-06T12:03:52;33.53;;;30.93;;
11531;SDS011;5822;51.000;5.874;2022-07-06T12:06:22;28.77;;;26.37;;
11531;SDS011;5822;51.000;5.874;2022-07-06T12:08:50;28.07;;;25.67;;
11531;SDS011;5822;51.000;5.874;2022-07-06T12:11:27;27.87;;;25.37;;
11531;SDS011;5822;51.000;5.874;2022-07-06T12:13:58;26.80;;;24.50;;
11531;SDS011;5822;51.000;5.874;2022-07-06T12:16:37;27.50;;;25.20;;
11531;SDS011;5822;51.000;5.874;2022-07-06T12:19:03;27.17;;;24.77;;
11531;SDS011;5822;51.000;5.874;2022-07-06T12:21:30;27.43;;;25.03;;
11531;SDS011;5822;51.000;5.874;2022-07-06T12:23:56;27.47;;;25.17;;
11531;SDS011;5822;51.000;5.874;2022-07-06T12:26:23;27.00;;;24.70;;
11531;SDS011;5822;51.000;5.874;2022-07-06T12:29:02;26.30;;;23.97;;
11531;SDS011;5822;51.000;5.874;2022-07-06T12:31:35;27.87;;;25.57;;
11531;SDS011;5822;51.000;5.874;2022-07-06T12:34:03;27.50;;;25.07;;
11531;SDS011;5822;51.000;5.874;2022-07-06T12:36:29;27.50;;;25.17;;
11531;SDS011;5822;51.000;5.874;2022-07-06T12:38:56;27.03;;;24.73;;
11531;SDS011;5822;51.000;5.874;2022-07-06T12:41:29;28.17;;;25.83;;
11531;SDS011;5822;51.000;5.874;2022-07-06T12:44:00;27.67;;;25.27;;
11531;SDS011;5822;51.000;5.874;2022-07-06T12:46:37;27.27;;;24.97;;
11531;SDS011;5822;51.000;5.874;2022-07-06T12:49:12;26.27;;;23.83;;
11531;SDS011;5822;51.000;5.874;2022-07-06T12:51:56;35.17;;;32.47;;
11531;SDS011;5822;51.000;5.874;2022-07-06T12:54:30;29.10;;;26.70;;
11531;SDS011;5822;51.000;5.874;2022-07-06T12:59:29;27.03;;;24.53;;
11531;SDS011;5822;51.000;5.874;2022-07-06T13:01:55;26.27;;;23.87;;
11531;SDS011;5822;51.000;5.874;2022-07-06T13:04:25;27.70;;;25.30;;
11531;SDS011;5822;51.000;5.874;2022-07-06T13:06:53;28.30;;;25.90;;
11531;SDS011;5822;51.000;5.874;2022-07-06T13:09:19;29.10;;;26.70;;
11531;SDS011;5822;51.000;5.874;2022-07-06T13:11:46;27.13;;;24.73;;
11531;SDS011;5822;51.000;5.874;2022-07-06T13:14:13;29.60;;;27.20;;
11531;SDS011;5822;51.000;5.874;2022-07-06T13:16:42;29.77;;;27.47;;
11531;SDS011;5822;51.000;5.874;2022-07-06T13:19:09;27.67;;;25.37;;
11531;SDS011;5822;51.000;5.874;2022-07-06T13:21:35;26.13;;;23.83;;
11531;SDS011;5822;51.000;5.874;2022-07-06T13:24:00;27.80;;;25.40;;
11531;SDS011;5822;51.000;5.874;2022-07-06T13:26:27;27.70;;;25.40;;
11531;SDS011;5822;51.000;5.874;2022-07-06T13:28:53;26.80;;;24.43;;
11531;SDS011;5822;51.000;5.874;2022-07-06T13:31:18;27.47;;;25.17;;
11531;SDS011;5822;51.000;5.874;2022-07-06T13:33:44;27.63;;;25.33;;
11531;SDS011;5822;51.000;5.874;2022-07-06T13:36:09;26.10;;;23.83;;
11531;SDS011;5822;51.000;5.874;2022-07-06T13:38:35;28.85;;;26.65;;
11531;SDS011;5822;51.000;5.874;2022-07-06T13:41:00;31.75;;;29.25;;
11531;SDS011;5822;51.000;5.874;2022-07-06T13:43:26;35.50;;;32.85;;
11531;SDS011;5822;51.000;5.874;2022-07-06T13:46:00;28.80;;;26.17;;
11531;SDS011;5822;51.000;5.874;2022-07-06T13:48:27;29.27;;;26.88;;
11531;SDS011;5822;51.000;5.874;2022-07-06T13:50:53;27.60;;;25.27;;
11531;SDS011;5822;51.000;5.874;2022-07-06T13:53:18;26.83;;;24.58;;
11531;SDS011;5822;51.000;5.874;2022-07-06T13:55:44;27.67;;;25.38;;
11531;SDS011;5822;51.000;5.874;2022-07-06T13:58:10;27.02;;;24.75;;
11531;SDS011;5822;51.000;5.874;2022-07-06T14:00:35;27.52;;;25.10;;
11531;SDS011;5822;51.000;5.874;2022-07-06T14:03:01;29.05;;;26.60;;
11531;SDS011;5822;51.000;5.874;2022-07-06T14:05:27;27.02;;;24.63;;
11531;SDS011;5822;51.000;5.874;2022-07-06T14:07:54;28.77;;;26.17;;
11531;SDS011;5822;51.000;5.874;2022-07-06T14:10:20;29.02;;;26.63;;
11531;SDS011;5822;51.000;5.874;2022-07-06T14:12:45;31.23;;;28.73;;
11531;SDS011;5822;51.000;5.874;2022-07-06T14:15:11;27.38;;;25.05;;
11531;SDS011;5822;51.000;5.874;2022-07-06T14:17:37;26.50;;;24.10;;
11531;SDS011;5822;51.000;5.874;2022-07-06T14:20:02;26.23;;;23.92;;
11531;SDS011;5822;51.000;5.874;2022-07-06T14:22:28;25.80;;;23.30;;
11531;SDS011;5822;51.000;5.874;2022-07-06T14:24:54;26.42;;;23.30;;
11531;SDS011;5822;51.000;5.874;2022-07-06T14:27:19;25.40;;;23.10;;
11531;SDS011;5822;51.000;5.874;2022-07-06T14:29:46;24.77;;;22.42;;
11531;SDS011;5822;51.000;5.874;2022-07-06T14:32:11;25.80;;;23.40;;
11531;SDS011;5822;51.000;5.874;2022-07-06T14:34:37;24.85;;;22.63;;
11531;SDS011;5822;51.000;5.874;2022-07-06T14:37:03;25.15;;;22.92;;
11531;SDS011;5822;51.000;5.874;2022-07-06T14:39:28;24.58;;;22.38;;
11531;SDS011;5822;51.000;5.874;2022-07-06T14:41:54;24.90;;;22.67;;
11531;SDS011;5822;51.000;5.874;2022-07-06T14:44:20;26.27;;;23.90;;
11531;SDS011;5822;51.000;5.874;2022-07-06T14:46:45;24.38;;;22.17;;
11531;SDS011;5822;51.000;5.874;2022-07-06T14:49:11;25.63;;;23.33;;
11531;SDS011;5822;51.000;5.874;2022-07-06T14:51:37;24.95;;;22.65;;
11531;SDS011;5822;51.000;5.874;2022-07-06T14:54:03;25.23;;;22.92;;
11531;SDS011;5822;51.000;5.874;2022-07-06T14:56:28;23.90;;;21.75;;
11531;SDS011;5822;51.000;5.874;2022-07-06T14:58:54;24.92;;;22.60;;